Terminal Aerodrome Forecast
Issued by NWS

Home | Current Version | Previous Version | Text Only | Print | Product List | Glossary On
Versions: 1 2 3 4 5 6 7 8 9 10 11 12 13
624
FTAK31 PAJN 251122
TAFASI
TAF
PASI 251122Z 2512/2612 00000KT P6SM SCT050 BKN060 OVC080
     FM251500 12008KT 5SM -RA BR SCT025 OVC040
     FM252100 21008KT P6SM -RA BKN025 OVC040
     FM260000 22006KT P6SM -SHRA SCT025 OVC050
     FM260600 15004KT P6SM VCSH OVC050=

USA.gov is the U.S. government's official web portal to all federal, state and local government web resources and services.